• Join FlightAware (Why Join?)
  • Login
  • US Flag 
10:41AM EDT


 

Airport Tracker/Info


-or-


 

Live Flight TrackerFlight Track Log ✈ N6519N ✈ 19-Jul-2013 ✈ KHAO - KLPR

Flight Track Log - Related Links

Times and Time Zones

All times are in EDT time to prevent confusion due to time zone crossing. See the N6519N flight status page for this flight to view local times or setup timezone preferences in your user account.

Time Position Orientation Groundspeed Altitude Reporting Facility
EDT Latitude Longitude Course Direction KTS MPH feet Rate Location/Type
08:48AM 39.4000 -84.5500 66° East 136 157 1,700  Level Cincinnati TRACON
08:49AM 39.4081 -84.5264 66° East 161 185 2,200 660 Climbing Indianapolis Center
08:50AM 39.4261 -84.4972 51° Northeast 153 176 2,700 780 Climbing Indianapolis Center
08:51AM 39.4703 -84.4969 360° North 145 167 3,600 840 Climbing Indianapolis Center
08:52AM 39.5092 -84.4878 10° North 146 168 4,500 840 Climbing Indianapolis Center
08:53AM 39.5367 -84.4492 47° Northeast 161 185 5,300 780 Climbing Indianapolis Center
08:54AM 39.5658 -84.4111 45° Northeast 160 184 6,000 720 Climbing Indianapolis Center
08:54AM 39.5786 -84.3917 50° Northeast 158 182 6,400 720 Climbing Indianapolis Center
08:55AM 39.6117 -84.3539 41° Northeast 158 182 7,200 780 Climbing Indianapolis Center
08:56AM 39.6483 -84.3197 36° Northeast 158 182 8,100 720 Climbing Indianapolis Center
08:57AM 39.6906 -84.2731 40° Northeast 163 188 8,800 420 Climbing Indianapolis Center
08:58AM 39.7272 -84.2317 41° Northeast 173 199 9,000 60 Climbing Indianapolis Center
08:59AM 39.7644 -84.1856 44° Northeast 181 208 9,000  Level Indianapolis Center
09:00AM 39.8019 -84.1444 40° Northeast 179 206 9,000  Level Indianapolis Center
09:01AM 39.8347 -84.1022 45° Northeast 173 199 9,000  Level Indianapolis Center
09:02AM 39.8683 -84.0586 45° Northeast 171 197 9,000  Level Indianapolis Center
09:03AM 39.9122 -84.0061 43° Northeast 176 203 9,000  Level Indianapolis Center
09:05AM 39.9461 -83.9631 44° Northeast 174 200 9,000  Level Indianapolis Center
09:06AM 39.9836 -83.9186 42° Northeast 180 207 9,000  Level Indianapolis Center
09:07AM 40.0175 -83.8753 44° Northeast 174 200 9,000  Level Indianapolis Center
09:08AM 40.0533 -83.8311 43° Northeast 179 206 9,000  Level Indianapolis Center
09:09AM 40.0944 -83.7797 44° Northeast 176 203 9,000  Level Indianapolis Center
09:10AM 40.1292 -83.7350 45° Northeast 176 203 9,000  Level Indianapolis Center
09:11AM 40.1658 -83.6900 43° Northeast 177 204 9,000  Level Indianapolis Center
09:12AM 40.2025 -83.6456 43° Northeast 179 206 9,000  Level Indianapolis Center
09:13AM 40.2372 -83.6003 45° Northeast 176 203 9,000  Level Indianapolis Center
09:14AM 40.2725 -83.5567 43° Northeast 174 200 9,000  Level Indianapolis Center
09:15AM 40.3067 -83.5117 45° Northeast 173 199 9,000  Level Indianapolis Center
09:16AM 40.3503 -83.4603 42° Northeast 172 198 9,000 -60 Level Indianapolis Center
09:17AM 40.3836 -83.4164 45° Northeast 174 200 8,900 -300 Descending Indianapolis Center
09:18AM 40.4206 -83.3700 44° Northeast 180 207 8,500 -420 Descending Indianapolis Center
09:19AM 40.4589 -83.3214 44° Northeast 186 214 8,100 -360 Descending Indianapolis Center
09:20AM 40.4958 -83.2753 43° Northeast 184 212 7,800 -360 Descending Indianapolis Center
09:21AM 40.5336 -83.2261 45° Northeast 186 214 7,400 -420 Descending Indianapolis Center
09:22AM 40.5692 -83.1786 45° Northeast 184 212 7,000 -240 Descending Indianapolis Center
09:23AM 40.6064 -83.1322 43° Northeast 182 209 7,000  Level Indianapolis Center
09:24AM 40.6414 -83.0894 43° Northeast 176 203 7,000 -240 Level Indianapolis Center
09:25AM 40.6817 -83.0372 45° Northeast 173 199 6,600 -360 Descending Indianapolis Center
09:26AM 40.7186 -82.9889 45° Northeast 179 206 6,300 -360 Descending Indianapolis Center
09:27AM 40.7550 -82.9406 45° Northeast 182 209 5,900 -480 Descending Indianapolis Center
09:28AM 40.7933 -82.8936 43° Northeast 184 212 5,400 -480 Descending Indianapolis Center
09:29AM 40.8314 -82.8461 43° Northeast 185 213 5,000 -420 Descending Indianapolis Center